Time;durP1;ratioP1;P1;durP2;ratioP2;P2;SDS_P1;SDS_P2;PMS_P1;PMS_P2;Temp;Humidity;BMP_temperature;BMP_pressure;BME280_temperature;BME280_humidity;BME280_pressure;Samples;Min_cycle;Max_cycle;Signal;HPM_P1;HPM_P2
2022/02/09 00:02:04;;;;;;;2.65;1.25;;;7.80;99.90;;;;;;10383982;28;20076;-59
2022/02/09 00:07:14;;;;;;;1.73;0.90;;;7.80;99.90;;;;;;10383189;28;20091;-59
2022/02/09 00:12:32;;;;;;;2.75;1.10;;;7.80;99.90;;;;;;10379739;28;20049;-60
2022/02/09 00:17:47;;;;;;;1.65;1.00;;;7.80;99.90;;;;;;10392336;28;20079;-60
2022/02/09 00:23:31;;;;;;;1.58;0.95;;;7.80;99.90;;;;;;10384507;28;20068;-60
2022/02/09 00:34:10;;;;;;;2.55;0.73;;;7.70;99.90;;;;;;10384880;28;20081;-60
2022/02/09 01:43:47;;;;;;;2.33;1.23;;;7.60;99.90;;;;;;10387142;28;20099;-59
2022/02/09 01:59:06;;;;;;;1.83;1.17;;;7.60;99.90;;;;;;10387183;28;20076;-61
2022/02/09 02:04:07;;;;;;;2.65;1.48;;;7.60;99.90;;;;;;10387603;28;20119;-62
2022/02/09 02:09:10;;;;;;;3.10;1.60;;;7.60;99.90;;;;;;10394439;28;20077;-59
2022/02/09 02:19:37;;;;;;;1.65;0.90;;;7.60;99.90;;;;;;10385478;28;20050;-60
2022/02/09 02:30:48;;;;;;;3.33;1.00;;;7.60;99.90;;;;;;10383876;28;20103;-60
2022/02/09 02:46:29;;;;;;;3.03;1.05;;;7.50;99.90;;;;;;10383437;28;20136;-59
2022/02/09 03:13:10;;;;;;;2.97;1.30;;;7.50;99.90;;;;;;10361561;28;20103;-59
2022/02/09 03:55:26;;;;;;;2.35;1.70;;;7.60;99.90;;;;;;10385620;28;20122;-60
2022/02/09 04:00:31;;;;;;;4.93;1.70;;;7.60;99.90;;;;;;10378075;28;20084;-59
2022/02/09 04:05:32;;;;;;;3.63;1.60;;;7.60;99.90;;;;;;10381214;28;20053;-59
2022/02/09 04:10:40;;;;;;;2.25;1.10;;;7.50;99.90;;;;;;10384201;28;20065;-59
2022/02/09 04:15:52;;;;;;;4.22;1.90;;;7.50;99.90;;;;;;10380325;28;20057;-59
2022/02/09 04:37:04;;;;;;;3.40;1.70;;;7.60;99.90;;;;;;10374076;28;20046;-60
2022/02/09 04:57:48;;;;;;;2.78;1.50;;;7.50;99.90;;;;;;10383479;28;20073;-61
2022/02/09 05:03:45;;;;;;;4.47;1.80;;;7.50;99.90;;;;;;10373213;28;20494;-60
2022/02/09 05:24:20;;;;;;;4.65;2.05;;;7.50;99.90;;;;;;10378795;28;20504;-60
2022/02/09 05:29:22;;;;;;;4.60;2.15;;;7.50;99.90;;;;;;10377090;28;20115;-60
2022/02/09 05:34:23;;;;;;;3.60;1.65;;;7.60;99.90;;;;;;10380306;28;20049;-59
2022/02/09 05:39:25;;;;;;;3.03;1.73;;;7.50;99.90;;;;;;10376781;28;20515;-60
2022/02/09 05:44:27;;;;;;;3.95;2.03;;;7.50;99.90;;;;;;10388501;28;20073;-61
2022/02/09 05:59:40;;;;;;;7.43;3.30;;;7.40;99.90;;;;;;10390373;28;20083;-61
2022/02/09 06:04:43;;;;;;;7.13;2.92;;;7.50;99.90;;;;;;10388706;28;20135;-60
2022/02/09 06:09:44;;;;;;;6.10;2.55;;;7.50;99.90;;;;;;10388464;28;20053;-61
2022/02/09 06:20:27;;;;;;;4.95;2.80;;;7.50;99.90;;;;;;10249848;28;20051;-59
2022/02/09 06:25:30;;;;;;;6.28;3.13;;;7.50;99.90;;;;;;10354636;28;20095;-59
2022/02/09 06:30:31;;;;;;;7.10;4.47;;;7.50;99.90;;;;;;10384737;28;20057;-59
2022/02/09 06:35:33;;;;;;;9.50;3.22;;;7.60;99.90;;;;;;10390299;28;20565;-59
2022/02/09 06:40:42;;;;;;;8.65;3.03;;;7.50;99.90;;;;;;10387213;28;20282;-61
2022/02/09 06:45:44;;;;;;;6.63;3.20;;;7.60;99.90;;;;;;10385709;28;20045;-63
2022/02/09 06:50:51;;;;;;;9.20;3.30;;;7.60;99.90;;;;;;10385834;28;20111;-63
2022/02/09 06:56:00;;;;;;;10.40;3.30;;;7.70;99.90;;;;;;10381006;28;20434;-63
2022/02/09 07:01:06;;;;;;;6.15;3.38;;;7.70;99.90;;;;;;10384831;28;20330;-64
2022/02/09 07:06:08;;;;;;;7.20;3.33;;;7.70;99.90;;;;;;10383806;28;20045;-62
2022/02/09 07:11:10;;;;;;;8.30;3.47;;;7.70;99.90;;;;;;10387766;28;20052;-63
2022/02/09 07:16:11;;;;;;;6.07;3.28;;;7.70;99.90;;;;;;10385199;28;20562;-63
2022/02/09 07:21:18;;;;;;;7.15;3.60;;;7.70;99.90;;;;;;10386064;28;20084;-63
2022/02/09 07:26:27;;;;;;;6.93;3.92;;;7.70;99.90;;;;;;10385562;28;20072;-64
2022/02/09 07:31:29;;;;;;;8.07;3.90;;;7.80;99.90;;;;;;10381855;28;20653;-64
2022/02/09 07:36:35;;;;;;;10.30;3.60;;;7.70;99.90;;;;;;10382571;28;20050;-64
2022/02/09 07:41:41;;;;;;;7.60;4.10;;;7.70;99.90;;;;;;10386323;28;20054;-65
2022/02/09 07:52:00;;;;;;;8.43;3.97;;;7.80;99.90;;;;;;10379871;28;20498;-65
2022/02/09 07:57:02;;;;;;;7.70;4.00;;;7.80;99.90;;;;;;10381054;28;20773;-64
2022/02/09 08:02:04;;;;;;;8.75;4.13;;;7.80;99.90;;;;;;10383078;28;20346;-64
2022/02/09 08:07:06;;;;;;;7.15;3.75;;;7.90;99.90;;;;;;10382078;28;20069;-64
2022/02/09 08:23:38;;;;;;;8.82;3.40;;;8.00;99.90;;;;;;10384274;28;20045;-64
2022/02/09 08:28:48;;;;;;;5.88;3.40;;;8.10;99.90;;;;;;10377472;28;20444;-63
2022/02/09 08:33:50;;;;;;;5.95;3.05;;;8.10;99.90;;;;;;10379994;28;20042;-64
2022/02/09 08:38:52;;;;;;;9.40;3.92;;;8.20;99.90;;;;;;10379393;28;20041;-63
2022/02/09 08:43:53;;;;;;;9.38;4.10;;;8.30;99.90;;;;;;10378543;28;20060;-63
2022/02/09 08:48:55;;;;;;;12.77;4.15;;;8.30;99.90;;;;;;10379970;28;20045;-63
2022/02/09 08:53:57;;;;;;;11.05;4.18;;;8.40;99.90;;;;;;10383205;28;20041;-63
2022/02/09 08:59:01;;;;;;;9.13;4.10;;;8.40;99.90;;;;;;10379372;28;20060;-64
2022/02/09 09:04:14;;;;;;;10.40;4.70;;;8.40;99.90;;;;;;10382814;28;20076;-64
2022/02/09 09:09:24;;;;;;;9.50;3.80;;;8.40;99.90;;;;;;10382732;28;20049;-64
2022/02/09 09:58:00;;;;;;;9.98;4.18;;;8.80;99.90;;;;;;10382339;28;20099;-65
2022/02/09 10:36:01;;;;;;;6.93;2.70;;;9.60;99.90;;;;;;10385141;28;20508;-65
2022/02/09 10:41:15;;;;;;;;;;;9.60;99.90;;;;;;10384760;28;20092;-65
2022/02/09 10:46:20;;;;;;;4.85;2.55;;;9.90;99.90;;;;;;10384151;28;19960;-65
2022/02/09 10:51:46;;;;;;;7.80;3.35;;;10.00;99.90;;;;;;10382467;28;20049;-64
2022/02/09 10:56:57;;;;;;;5.43;2.80;;;10.00;99.80;;;;;;10389302;28;20072;-65
2022/02/09 11:02:03;;;;;;;7.60;3.80;;;10.10;99.90;;;;;;10381805;28;20056;-65
2022/02/09 11:07:05;;;;;;;7.85;2.80;;;10.20;98.60;;;;;;10385997;28;20041;-65
2022/02/09 11:12:07;;;;;;;5.38;2.80;;;10.30;98.60;;;;;;10386083;28;20452;-65
2022/02/09 11:17:11;;;;;;;4.32;2.53;;;10.20;98.60;;;;;;10386196;28;20099;-65
2022/02/09 11:22:23;;;;;;;11.02;3.13;;;10.40;98.00;;;;;;10383264;28;20488;-64
2022/02/09 11:27:32;;;;;;;6.10;2.78;;;10.60;97.00;;;;;;10381169;28;20072;-64
2022/02/09 11:32:54;;;;;;;5.00;2.30;;;10.70;96.20;;;;;;10384004;28;20103;-65
2022/02/09 12:10:02;;;;;;;4.28;1.40;;;11.30;92.20;;;;;;10378950;28;20053;-65
2022/02/09 12:20:35;;;;;;;2.63;1.17;;;11.20;90.50;;;;;;10381053;28;20058;-64
2022/02/09 12:25:41;;;;;;;3.95;1.13;;;11.30;91.10;;;;;;10377442;28;20506;-65
2022/02/09 12:30:46;;;;;;;2.38;1.20;;;11.30;90.10;;;;;;10380819;28;20049;-64
2022/02/09 12:35:49;;;;;;;4.30;1.48;;;11.40;90.20;;;;;;10378960;28;20052;-64
2022/02/09 12:41:17;;;;;;;2.40;0.65;;;11.40;90.60;;;;;;10384290;28;20108;-64
2022/02/09 12:46:25;;;;;;;5.03;1.17;;;11.30;90.50;;;;;;10383061;28;20168;-65
2022/02/09 12:51:29;;;;;;;2.42;0.85;;;11.30;91.00;;;;;;10379561;28;20151;-64
2022/02/09 12:56:40;;;;;;;2.33;0.80;;;11.40;91.10;;;;;;10377861;28;20050;-64
2022/02/09 13:01:54;;;;;;;1.52;0.70;;;11.40;90.90;;;;;;10378749;28;20061;-65
2022/02/09 13:06:56;;;;;;;2.97;0.70;;;11.30;90.70;;;;;;10381246;28;20050;-65
2022/02/09 13:11:58;;;;;;;1.25;0.52;;;11.30;90.00;;;;;;10375055;28;20499;-65
2022/02/09 13:17:21;;;;;;;2.70;0.63;;;11.30;90.00;;;;;;10382202;28;20049;-63
2022/02/09 13:22:42;;;;;;;3.15;0.60;;;11.30;89.70;;;;;;10379365;28;20123;-64
2022/02/09 14:06:43;;;;;;;3.13;0.60;;;11.70;90.40;;;;;;10386575;28;20049;-63
2022/02/09 14:11:39;;;;;;;2.13;0.70;;;11.60;90.00;;;;;;10381015;28;20068;-64
2022/02/09 14:49:50;;;;;;;2.65;0.70;;;12.00;89.60;;;;;;10383846;28;20076;-64
2022/02/09 14:54:30;;;;;;;2.55;0.63;;;12.00;90.10;;;;;;10378335;28;20103;-64
2022/02/09 14:59:46;;;;;;;4.88;0.70;;;12.00;90.50;;;;;;10377615;28;20518;-64
2022/02/09 15:10:16;;;;;;;2.83;0.75;;;11.90;90.40;;;;;;10370150;28;20635;-64
2022/02/09 15:21:00;;;;;;;6.25;0.77;;;12.00;90.50;;;;;;10388704;28;20057;-64
2022/02/09 15:26:04;;;;;;;4.35;0.80;;;11.90;90.80;;;;;;10378201;28;20397;-64
2022/02/09 15:36:12;;;;;;;6.60;0.63;;;11.90;91.40;;;;;;10383457;28;20045;-64
2022/02/09 15:41:27;;;;;;;8.13;1.63;;;11.90;91.60;;;;;;10377787;28;20081;-64
2022/02/09 16:08:24;;;;;;;4.82;1.05;;;11.50;94.00;;;;;;10381156;28;20103;-65
2022/02/09 16:24:08;;;;;;;2.08;0.93;;;11.10;97.70;;;;;;10379466;28;20073;-64
2022/02/09 16:45:15;;;;;;;8.85;2.17;;;10.50;99.90;;;;;;10377302;28;20081;-65
2022/02/09 16:50:24;;;;;;;6.32;2.00;;;10.40;99.90;;;;;;10382767;28;20108;-63
2022/02/09 17:22:09;;;;;;;7.22;3.00;;;9.80;99.90;;;;;;10380371;28;20037;-65
2022/02/09 17:27:18;;;;;;;10.95;4.30;;;9.80;99.90;;;;;;10379692;28;20049;-66
2022/02/09 17:53:23;;;;;;;;;;;9.60;99.90;;;;;;10389035;28;20077;-65
2022/02/09 17:53:49;;;;;;;8.85;3.53;;;9.40;99.90;;;;;;10384550;28;20476;-65
2022/02/09 17:58:53;;;;;;;10.60;4.50;;;9.40;99.90;;;;;;10389234;28;20584;-65
2022/02/09 18:03:55;;;;;;;6.90;4.20;;;9.30;99.90;;;;;;10384616;28;20061;-65
2022/02/09 19:06:16;;;;;;;6.32;2.05;;;8.40;99.90;;;;;;10373820;28;20049;-63
2022/02/09 19:32:25;;;;;;;7.13;2.97;;;7.60;99.90;;;;;;10379803;28;20049;-63
2022/02/09 19:43:34;;;;;;;7.07;2.50;;;7.20;99.90;;;;;;10379811;28;20049;-62
2022/02/09 19:48:34;;;;;;;8.25;3.13;;;7.00;99.90;;;;;;10378743;28;20073;-62
2022/02/09 19:59:03;;;;;;;4.97;2.08;;;7.30;99.90;;;;;;10379754;28;20121;-62
2022/02/09 20:04:07;;;;;;;9.02;2.03;;;7.40;99.90;;;;;;10377865;28;20060;-61
2022/02/09 20:09:09;;;;;;;6.90;2.67;;;7.40;99.90;;;;;;10380604;28;20080;-62
2022/02/09 20:14:12;;;;;;;8.30;2.38;;;7.50;99.90;;;;;;10381260;28;20073;-63
2022/02/09 20:19:14;;;;;;;10.25;2.40;;;7.50;99.90;;;;;;10381422;28;20143;-63
2022/02/09 20:24:17;;;;;;;8.88;2.75;;;7.50;99.90;;;;;;10379504;28;20077;-62
2022/02/09 20:29:24;;;;;;;6.80;2.60;;;7.50;99.90;;;;;;10380353;28;20081;-63
2022/02/09 20:34:37;;;;;;;17.65;4.07;;;7.40;99.90;;;;;;10379603;28;20107;-62
2022/02/09 20:39:45;;;;;;;10.85;3.03;;;7.20;99.90;;;;;;10380435;28;20069;-62
2022/02/09 20:44:55;;;;;;;8.75;3.58;;;7.10;99.90;;;;;;10385775;28;21038;-62
2022/02/09 20:49:57;;;;;;;7.88;3.10;;;7.00;99.90;;;;;;10381643;28;20132;-62
2022/02/09 20:54:58;;;;;;;8.93;3.92;;;7.00;99.90;;;;;;10380158;28;20052;-62
2022/02/09 21:00:08;;;;;;;11.45;3.17;;;7.00;99.90;;;;;;10387326;28;20057;-62
2022/02/09 21:05:34;;;;;;;7.80;2.63;;;7.00;99.90;;;;;;10379733;28;20132;-62
2022/02/09 21:10:51;;;;;;;7.20;2.42;;;7.10;99.90;;;;;;10380478;28;20076;-62
2022/02/09 21:16:09;;;;;;;8.18;2.42;;;7.10;99.90;;;;;;10387581;28;20119;-63
2022/02/09 21:26:49;;;;;;;6.65;2.10;;;7.10;99.90;;;;;;10386053;28;20476;-62
2022/02/09 21:43:55;;;;;;;15.40;2.08;;;7.20;99.90;;;;;;10390874;28;20078;-62
2022/02/09 22:20:16;;;;;;;6.68;2.40;;;6.60;99.90;;;;;;10386403;28;20450;-62
2022/02/09 22:26:13;;;;;;;5.50;3.10;;;6.50;99.90;;;;;;10387758;28;20122;-63
2022/02/09 22:57:45;;;;;;;7.05;2.55;;;5.70;99.90;;;;;;10346712;28;20107;-63
2022/02/09 23:02:52;;;;;;;11.95;3.15;;;5.50;99.90;;;;;;10384079;28;20400;-63
2022/02/09 23:13:16;;;;;;;6.25;2.85;;;5.20;99.90;;;;;;10384997;28;20049;-63
2022/02/09 23:23:50;;;;;;;8.18;3.25;;;5.00;99.90;;;;;;10387571;28;20048;-62
